Time;durP1;ratioP1;P1;durP2;ratioP2;P2;SDS_P1;SDS_P2;PMS_P1;PMS_P2;Temp;Humidity;BMP_temperature;BMP_pressure;BME280_temperature;BME280_humidity;BME280_pressure;Samples;Min_cycle;Max_cycle;Signal;HPM_P1;HPM_P2
2022/07/28 00:02:20;;;;;;;3.17;1.90;;;20.80;94.70;;;;;;5003475;28;20257;-68
2022/07/28 00:04:46;;;;;;;2.47;2.10;;;20.90;95.00;;;;;;5003803;28;20583;-71
2022/07/28 00:07:11;;;;;;;3.13;2.47;;;20.90;95.00;;;;;;5002221;28;20183;-69
2022/07/28 00:09:37;;;;;;;3.77;2.60;;;20.70;94.80;;;;;;5003705;28;20441;-69
2022/07/28 00:12:03;;;;;;;4.10;2.27;;;20.60;95.00;;;;;;5004083;28;20266;-68
2022/07/28 00:14:29;;;;;;;2.23;1.90;;;20.40;95.40;;;;;;5003653;28;20208;-68
2022/07/28 00:16:54;;;;;;;5.47;2.30;;;20.50;95.80;;;;;;5003988;28;20775;-70
2022/07/28 00:19:20;;;;;;;3.23;2.20;;;20.50;95.40;;;;;;5003329;28;20195;-68
2022/07/28 00:21:46;;;;;;;5.20;2.10;;;20.50;95.50;;;;;;5003653;28;20196;-67
2022/07/28 00:24:12;;;;;;;2.23;1.80;;;20.40;95.50;;;;;;5004295;28;20191;-68
2022/07/28 00:26:37;;;;;;;4.97;1.97;;;20.30;95.70;;;;;;5003739;28;20742;-68
2022/07/28 00:42:45;;;;;;;2.50;1.80;;;20.00;96.40;;;;;;5006570;28;20552;-69
2022/07/28 00:45:10;;;;;;;2.90;2.27;;;19.90;96.70;;;;;;5007444;28;20842;-67
2022/07/28 00:47:36;;;;;;;2.30;1.57;;;19.80;96.90;;;;;;5006770;28;20184;-69
2022/07/28 00:50:02;;;;;;;3.83;2.10;;;19.80;96.90;;;;;;5007329;28;20246;-69
2022/07/28 00:52:28;;;;;;;3.53;2.37;;;19.80;96.90;;;;;;5007808;28;20192;-69
2022/07/28 00:54:57;;;;;;;2.50;1.70;;;19.90;97.00;;;;;;5008619;28;20529;-67
2022/07/28 00:57:23;;;;;;;3.27;2.07;;;19.90;96.90;;;;;;5009085;28;20990;-68
2022/07/28 00:59:49;;;;;;;3.47;2.73;;;19.90;96.80;;;;;;5007495;28;20423;-68
2022/07/28 01:02:15;;;;;;;3.83;2.00;;;19.70;97.10;;;;;;5007291;28;20239;-64
2022/07/28 01:04:40;;;;;;;4.37;2.40;;;19.80;97.50;;;;;;5007288;28;20714;-69
2022/07/28 01:07:12;;;;;;;2.53;1.77;;;19.60;97.50;;;;;;5007593;28;20501;-70
2022/07/28 01:09:44;;;;;;;2.83;2.17;;;19.60;97.80;;;;;;5006756;28;20704;-69
2022/07/28 01:12:15;;;;;;;2.13;1.90;;;19.60;98.00;;;;;;5006883;28;20419;-67
2022/07/28 01:14:48;;;;;;;2.87;2.47;;;19.60;97.90;;;;;;5007279;28;20493;-67
2022/07/28 01:17:42;;;;;;;4.63;1.97;;;19.60;97.90;;;;;;5007018;28;20908;-67
2022/07/28 01:20:17;;;;;;;5.53;1.90;;;19.50;98.20;;;;;;5006915;28;20456;-67
2022/07/28 01:23:14;;;;;;;3.93;1.80;;;19.40;98.30;;;;;;5007000;28;20462;-69
2022/07/28 01:26:05;;;;;;;3.40;2.37;;;19.30;98.80;;;;;;5006612;28;20438;-69
2022/07/28 01:28:52;;;;;;;4.13;2.50;;;19.30;99.00;;;;;;5007020;28;20508;-70
2022/07/28 01:31:22;;;;;;;4.10;2.30;;;19.30;99.10;;;;;;5006802;28;20423;-68
2022/07/28 01:33:54;;;;;;;4.67;2.70;;;19.30;99.10;;;;;;5006359;28;20431;-68
2022/07/28 01:36:27;;;;;;;3.60;2.40;;;19.30;99.00;;;;;;5006873;28;20504;-68
2022/07/28 01:38:55;;;;;;;2.33;1.97;;;19.10;99.40;;;;;;5006296;28;20410;-69
2022/07/28 01:41:26;;;;;;;3.17;1.93;;;19.00;99.60;;;;;;5005866;28;20464;-68
2022/07/28 01:43:58;;;;;;;2.27;2.00;;;18.90;99.70;;;;;;5006395;28;20431;-67
2022/07/28 01:46:25;;;;;;;5.43;2.10;;;18.90;99.90;;;;;;5006501;28;20430;-68
2022/07/28 01:48:52;;;;;;;2.67;2.30;;;18.90;99.90;;;;;;5006290;28;20846;-70
2022/07/28 01:51:19;;;;;;;8.00;2.37;;;19.00;99.90;;;;;;5006474;28;20457;-68
2022/07/28 01:53:48;;;;;;;3.10;1.97;;;19.00;99.90;;;;;;5005751;28;20818;-69
2022/07/28 01:56:16;;;;;;;3.13;2.20;;;19.00;99.90;;;;;;5006299;28;20415;-69
2022/07/28 01:58:43;;;;;;;2.60;2.40;;;19.00;99.90;;;;;;5005877;28;20427;-69
2022/07/28 02:01:10;;;;;;;4.20;2.57;;;19.00;99.90;;;;;;5005922;28;20458;-68
2022/07/28 02:03:38;;;;;;;3.20;2.23;;;19.10;99.90;;;;;;5005544;28;21046;-68
2022/07/28 02:06:05;;;;;;;6.87;2.77;;;19.00;99.90;;;;;;5005625;28;20497;-69
2022/07/28 02:08:32;;;;;;;2.70;2.50;;;18.90;99.90;;;;;;5005719;28;20915;-68
2022/07/28 02:13:45;;;;;;;4.43;2.70;;;18.90;99.90;;;;;;5005989;28;20466;-68
2022/07/28 02:16:12;;;;;;;3.87;2.43;;;18.70;99.90;;;;;;5005616;28;20448;-69
2022/07/28 02:18:39;;;;;;;4.90;2.23;;;18.60;99.90;;;;;;5005414;28;20425;-68
2022/07/28 02:21:05;;;;;;;4.73;2.10;;;18.60;99.90;;;;;;5005392;28;20465;-68
2022/07/28 02:23:33;;;;;;;3.17;1.83;;;18.60;99.90;;;;;;5005428;28;20418;-71
2022/07/28 02:26:02;;;;;;;3.50;2.50;;;18.50;99.90;;;;;;5005159;28;20410;-68
2022/07/28 02:28:27;;;;;;;3.20;2.67;;;18.40;99.90;;;;;;5005567;28;20425;-68
2022/07/28 02:31:00;;;;;;;3.90;2.17;;;18.60;99.90;;;;;;5005309;28;20497;-68
2022/07/28 02:33:27;;;;;;;3.30;2.07;;;18.60;99.90;;;;;;5004923;28;20623;-68
2022/07/28 02:36:03;;;;;;;3.00;2.23;;;18.50;99.90;;;;;;5005601;28;20446;-68
2022/07/28 02:38:34;;;;;;;2.53;2.33;;;18.40;99.90;;;;;;5005149;28;20422;-68
2022/07/28 02:41:09;;;;;;;4.00;2.63;;;18.20;99.90;;;;;;5005002;28;20411;-68
2022/07/28 02:43:37;;;;;;;2.47;2.27;;;18.20;99.90;;;;;;5004642;28;20416;-68
2022/07/28 02:46:09;;;;;;;4.10;2.13;;;18.30;99.90;;;;;;5005096;28;20425;-69
2022/07/28 02:48:37;;;;;;;5.37;2.60;;;18.20;99.90;;;;;;5004666;28;20403;-69
2022/07/28 02:51:04;;;;;;;4.40;3.10;;;18.10;99.90;;;;;;5004660;28;20423;-68
2022/07/28 02:53:30;;;;;;;4.50;3.13;;;18.10;99.90;;;;;;5004042;28;20466;-70
2022/07/28 02:55:57;;;;;;;5.93;2.53;;;18.20;99.90;;;;;;5003824;28;20430;-68
2022/07/28 02:58:25;;;;;;;4.03;2.20;;;18.30;99.90;;;;;;5004773;28;20422;-68
2022/07/28 03:00:53;;;;;;;4.43;2.50;;;18.30;99.90;;;;;;5004930;28;20445;-69
2022/07/28 03:03:19;;;;;;;3.77;2.00;;;18.20;99.90;;;;;;5004695;28;20790;-68
2022/07/28 03:05:45;;;;;;;3.93;2.10;;;18.20;99.90;;;;;;5004409;28;20485;-67
2022/07/28 03:08:11;;;;;;;4.77;2.10;;;18.20;99.90;;;;;;5004778;28;21002;-70
2022/07/28 03:10:37;;;;;;;2.97;2.67;;;18.30;99.90;;;;;;5004189;28;20184;-67
2022/07/28 03:13:05;;;;;;;2.57;2.33;;;18.30;99.90;;;;;;5004735;28;20278;-68
2022/07/28 03:15:32;;;;;;;3.43;2.40;;;18.10;99.90;;;;;;5004818;28;20438;-68
2022/07/28 03:17:59;;;;;;;4.60;3.17;;;18.10;99.90;;;;;;5004124;28;20406;-68
2022/07/28 03:20:25;;;;;;;2.27;2.00;;;18.00;99.90;;;;;;5004836;28;20491;-71
2022/07/28 03:22:51;;;;;;;4.87;2.23;;;18.20;99.90;;;;;;5004672;28;20465;-68
2022/07/28 03:25:25;;;;;;;3.53;2.40;;;18.20;99.90;;;;;;5004307;28;20606;-68
2022/07/28 03:27:51;;;;;;;2.50;2.30;;;18.20;99.90;;;;;;5004384;28;20175;-66
2022/07/28 03:30:21;;;;;;;2.40;2.20;;;18.00;99.90;;;;;;5004737;28;20942;-66
2022/07/28 03:32:57;;;;;;;4.30;2.20;;;18.00;99.90;;;;;;5009397;28;20430;-66
2022/07/28 03:35:23;;;;;;;6.97;2.90;;;18.00;99.90;;;;;;5003451;28;20438;-69
2022/07/28 03:37:54;;;;;;;3.00;2.53;;;17.90;99.90;;;;;;5004583;28;20426;-68
2022/07/28 03:40:25;;;;;;;3.80;2.73;;;18.00;99.90;;;;;;5004679;28;20969;-68
2022/07/28 03:42:52;;;;;;;4.83;3.00;;;18.00;99.90;;;;;;5004482;28;20461;-67
2022/07/28 03:45:18;;;;;;;5.03;3.07;;;18.10;99.90;;;;;;5004505;28;20440;-67
2022/07/28 03:47:55;;;;;;;5.67;3.00;;;18.00;99.90;;;;;;5004858;28;20411;-69
2022/07/28 03:50:27;;;;;;;2.97;2.63;;;18.00;99.90;;;;;;5005486;28;20418;-66
2022/07/28 03:52:54;;;;;;;2.57;2.37;;;17.90;99.90;;;;;;5004241;28;20501;-67
2022/07/28 03:55:21;;;;;;;2.90;2.70;;;17.90;99.90;;;;;;5003222;28;20537;-67
2022/07/28 03:57:46;;;;;;;3.07;2.33;;;17.90;99.90;;;;;;5004286;28;20896;-67
2022/07/28 04:00:14;;;;;;;2.93;2.57;;;17.90;99.90;;;;;;5004913;28;20434;-66
2022/07/28 04:02:44;;;;;;;3.57;2.63;;;17.90;99.90;;;;;;5004484;28;20294;-67
2022/07/28 04:05:11;;;;;;;3.57;2.50;;;17.90;99.90;;;;;;5006203;28;20462;-67
2022/07/28 04:07:38;;;;;;;3.07;2.77;;;18.00;99.90;;;;;;5010508;28;20414;-67
2022/07/28 04:10:06;;;;;;;3.10;2.50;;;18.00;99.90;;;;;;5010369;28;20425;-67
2022/07/28 04:12:46;;;;;;;2.63;2.43;;;17.90;99.90;;;;;;5010449;28;20418;-67
2022/07/28 04:15:13;;;;;;;2.70;2.47;;;17.90;99.90;;;;;;5010909;28;20434;-67
2022/07/28 04:17:39;;;;;;;3.27;2.07;;;18.00;99.90;;;;;;5010665;28;20421;-67
2022/07/28 04:20:06;;;;;;;4.93;2.83;;;18.00;99.90;;;;;;4993221;28;20472;-67
2022/07/28 04:22:31;;;;;;;3.37;2.83;;;17.90;99.90;;;;;;5001292;28;20557;-66
2022/07/28 04:24:57;;;;;;;3.83;2.60;;;17.90;99.90;;;;;;5010194;28;20528;-66
2022/07/28 04:27:23;;;;;;;6.73;2.77;;;17.90;99.90;;;;;;5010084;28;20538;-68
2022/07/28 04:29:48;;;;;;;5.80;2.80;;;17.80;99.90;;;;;;5009486;28;20211;-67
2022/07/28 04:32:14;;;;;;;3.07;2.60;;;18.00;99.90;;;;;;5010579;28;20190;-66
2022/07/28 04:34:39;;;;;;;3.10;2.40;;;18.00;99.90;;;;;;5008707;28;20215;-67
2022/07/28 04:37:05;;;;;;;5.00;2.30;;;18.00;99.90;;;;;;5010256;28;20195;-67
2022/07/28 04:39:30;;;;;;;2.80;2.20;;;17.90;99.90;;;;;;5010304;28;20219;-67
2022/07/28 04:41:56;;;;;;;5.33;2.60;;;17.90;99.90;;;;;;5009828;28;20219;-67
2022/07/28 04:44:22;;;;;;;2.73;2.47;;;17.90;99.90;;;;;;5010429;28;20221;-67
2022/07/28 04:46:47;;;;;;;3.17;2.50;;;17.90;99.90;;;;;;5010236;28;20210;-67
2022/07/28 04:49:13;;;;;;;4.93;2.97;;;17.90;99.90;;;;;;5010021;28;20240;-67
2022/07/28 04:51:38;;;;;;;3.13;2.40;;;17.80;99.90;;;;;;5010596;28;20257;-67
2022/07/28 04:54:04;;;;;;;5.03;2.70;;;18.00;99.90;;;;;;5010978;28;20210;-67
2022/07/28 04:56:30;;;;;;;4.40;2.60;;;17.90;99.90;;;;;;5009347;28;20183;-68
2022/07/28 04:58:57;;;;;;;2.77;2.50;;;17.90;99.90;;;;;;5009163;28;20187;-67
2022/07/28 05:01:23;;;;;;;5.23;2.70;;;18.00;99.90;;;;;;5010449;28;20447;-67
2022/07/28 05:03:48;;;;;;;2.80;2.53;;;18.20;99.90;;;;;;5010133;28;20869;-68
2022/07/28 05:06:14;;;;;;;3.07;2.73;;;18.20;99.90;;;;;;5009699;28;20497;-70
2022/07/28 05:08:40;;;;;;;5.03;3.03;;;18.30;99.90;;;;;;5009907;28;20194;-69
2022/07/28 05:11:05;;;;;;;4.33;3.00;;;18.40;99.90;;;;;;5009338;28;20175;-68
2022/07/28 05:13:31;;;;;;;4.40;2.40;;;18.50;99.90;;;;;;5009861;28;20620;-68
2022/07/28 05:15:56;;;;;;;3.33;2.80;;;18.60;99.90;;;;;;5009776;28;20191;-68
2022/07/28 05:18:22;;;;;;;2.67;2.47;;;18.80;99.90;;;;;;5005953;28;20648;-68
2022/07/28 05:20:47;;;;;;;2.23;2.03;;;19.00;99.90;;;;;;5006940;28;20224;-68
2022/07/28 05:23:13;;;;;;;2.50;2.30;;;19.10;99.90;;;;;;5007012;28;20241;-69
2022/07/28 05:25:39;;;;;;;3.13;2.70;;;19.20;99.90;;;;;;5006627;28;20222;-67
2022/07/28 05:28:05;;;;;;;2.87;2.57;;;19.30;99.90;;;;;;5006159;28;20943;-70
2022/07/28 05:30:30;;;;;;;3.63;2.93;;;19.50;99.90;;;;;;5006653;28;20237;-67
2022/07/28 05:32:58;;;;;;;4.20;3.10;;;19.50;99.90;;;;;;5006745;28;20191;-68
2022/07/28 05:35:25;;;;;;;4.83;2.67;;;19.50;99.90;;;;;;5006632;28;20663;-68
2022/07/28 05:37:50;;;;;;;3.67;2.73;;;19.30;99.90;;;;;;5006254;28;20438;-68
2022/07/28 05:40:17;;;;;;;4.30;2.70;;;18.90;99.90;;;;;;5006071;28;20449;-67
2022/07/28 05:42:43;;;;;;;4.80;3.00;;;18.80;99.90;;;;;;5006437;28;20219;-67
2022/07/28 05:45:10;;;;;;;3.90;2.50;;;19.00;99.90;;;;;;4996001;28;20434;-67
2022/07/28 05:47:41;;;;;;;3.93;2.63;;;19.30;99.90;;;;;;5006504;28;20427;-67
2022/07/28 05:50:07;;;;;;;5.90;2.70;;;19.60;99.90;;;;;;5006023;28;20422;-68
2022/07/28 05:52:33;;;;;;;7.67;3.20;;;19.50;99.90;;;;;;5008802;28;20430;-65
2022/07/28 05:54:58;;;;;;;7.53;3.13;;;19.50;99.90;;;;;;5006155;28;21081;-68
2022/07/28 05:57:24;;;;;;;7.20;3.67;;;19.50;99.90;;;;;;5005764;28;20184;-69
2022/07/28 05:59:50;;;;;;;4.77;3.17;;;19.70;99.90;;;;;;5005909;28;20188;-69
2022/07/28 06:02:15;;;;;;;3.53;2.70;;;19.90;99.90;;;;;;5006284;28;20211;-68
2022/07/28 06:04:41;;;;;;;4.33;3.30;;;20.00;99.90;;;;;;5005784;28;20589;-69
2022/07/28 06:07:07;;;;;;;7.00;3.70;;;20.20;99.90;;;;;;5006051;28;20530;-68
2022/07/28 06:09:32;;;;;;;6.10;3.13;;;20.30;99.90;;;;;;5005931;28;20187;-68
2022/07/28 06:11:58;;;;;;;5.37;3.27;;;20.40;99.90;;;;;;5005400;28;20180;-70
2022/07/28 06:14:23;;;;;;;3.83;3.40;;;20.30;99.90;;;;;;5006492;28;20639;-67
2022/07/28 06:16:49;;;;;;;4.30;3.80;;;20.40;99.90;;;;;;5005850;28;20295;-68
2022/07/28 06:19:16;;;;;;;6.43;4.13;;;20.50;99.90;;;;;;5006058;28;20219;-68
2022/07/28 06:21:42;;;;;;;6.13;3.80;;;20.50;99.90;;;;;;5005774;28;20620;-68
2022/07/28 06:24:08;;;;;;;6.23;3.23;;;20.50;99.90;;;;;;5005973;28;20919;-69
2022/07/28 06:26:35;;;;;;;5.83;3.77;;;20.40;99.90;;;;;;5003948;28;20184;-68
2022/07/28 06:29:00;;;;;;;7.87;4.20;;;20.60;99.90;;;;;;5005262;28;20184;-68
2022/07/28 06:31:26;;;;;;;4.37;3.80;;;20.60;99.90;;;;;;5005896;28;20456;-67
2022/07/28 06:33:52;;;;;;;7.60;4.27;;;20.50;99.90;;;;;;5005435;28;20562;-69
2022/07/28 06:36:17;;;;;;;5.33;4.20;;;20.40;99.90;;;;;;5005874;28;20255;-66
2022/07/28 06:38:43;;;;;;;4.50;3.60;;;20.40;99.90;;;;;;5005499;28;20273;-68
2022/07/28 06:41:08;;;;;;;7.43;3.63;;;20.50;99.90;;;;;;5005030;28;20190;-67
2022/07/28 06:43:34;;;;;;;6.50;3.77;;;20.50;99.90;;;;;;5005471;28;20194;-67
2022/07/28 06:45:59;;;;;;;6.50;3.57;;;20.50;99.90;;;;;;5005689;28;20183;-67
2022/07/28 06:48:25;;;;;;;7.00;4.43;;;20.40;99.90;;;;;;5005313;28;20179;-68
2022/07/28 06:50:51;;;;;;;5.20;4.50;;;20.40;99.90;;;;;;5005360;28;20180;-69
2022/07/28 06:53:16;;;;;;;5.33;4.17;;;20.80;99.90;;;;;;5006026;28;20591;-67
2022/07/28 06:55:42;;;;;;;7.17;4.90;;;20.80;99.90;;;;;;5020111;22;20223;-68
2022/07/28 06:58:08;;;;;;;6.63;4.40;;;20.90;99.90;;;;;;5005138;28;20180;-68
2022/07/28 07:00:33;;;;;;;5.60;5.10;;;20.70;99.90;;;;;;5005217;28;20180;-68
2022/07/28 07:02:59;;;;;;;5.77;4.43;;;20.70;99.90;;;;;;5004206;28;20704;-67
2022/07/28 07:05:27;;;;;;;5.07;4.57;;;20.50;99.90;;;;;;5004828;28;20184;-68
2022/07/28 07:07:52;;;;;;;5.30;4.90;;;20.40;99.90;;;;;;5005054;28;20180;-69
2022/07/28 07:10:18;;;;;;;7.07;4.50;;;20.70;99.90;;;;;;5003954;28;20473;-68
2022/07/28 07:12:43;;;;;;;6.93;5.00;;;20.90;99.90;;;;;;5004835;28;20229;-66
2022/07/28 07:15:09;;;;;;;5.80;5.20;;;21.00;99.90;;;;;;5004431;28;20615;-67
2022/07/28 07:17:36;;;;;;;6.50;5.57;;;21.10;99.90;;;;;;5004176;28;20275;-68
2022/07/28 07:20:03;;;;;;;5.33;4.83;;;21.10;99.90;;;;;;5003398;28;20423;-67
2022/07/28 07:22:29;;;;;;;5.80;5.20;;;21.10;99.90;;;;;;5004093;28;20454;-68
2022/07/28 07:24:55;;;;;;;5.80;5.30;;;21.20;99.90;;;;;;5004714;28;20473;-69
2022/07/28 07:27:20;;;;;;;5.43;4.93;;;21.20;99.90;;;;;;5004410;28;20200;-68
2022/07/28 07:29:46;;;;;;;5.40;4.90;;;21.20;99.90;;;;;;5004322;28;20641;-68
2022/07/28 07:32:11;;;;;;;6.03;5.50;;;21.10;99.90;;;;;;5004320;28;20254;-68
2022/07/28 07:34:38;;;;;;;5.77;5.20;;;21.40;99.90;;;;;;4997169;28;20187;-67
2022/07/28 07:37:05;;;;;;;7.20;6.50;;;21.40;99.90;;;;;;5004351;28;20266;-67
2022/07/28 07:39:30;;;;;;;7.80;6.13;;;21.50;99.90;;;;;;5003224;28;20421;-68
2022/07/28 07:41:56;;;;;;;7.30;5.63;;;21.50;99.90;;;;;;4991266;28;20944;-71
2022/07/28 07:44:22;;;;;;;10.00;6.63;;;21.70;99.90;;;;;;5003913;28;20167;-68
2022/07/28 07:46:47;;;;;;;8.87;5.93;;;21.60;99.90;;;;;;5004600;28;20195;-67
2022/07/28 07:49:15;;;;;;;7.10;6.40;;;21.90;99.90;;;;;;5004101;28;20183;-68
2022/07/28 07:51:41;;;;;;;6.37;5.80;;;22.00;99.90;;;;;;5003695;28;20176;-70
2022/07/28 07:54:06;;;;;;;9.07;7.10;;;22.10;99.90;;;;;;5004173;28;20505;-68
2022/07/28 07:56:32;;;;;;;6.60;6.00;;;22.20;99.90;;;;;;5001239;28;21039;-69
2022/07/28 07:58:58;;;;;;;6.43;5.83;;;22.20;99.90;;;;;;5003055;28;20661;-68
2022/07/28 08:01:23;;;;;;;8.67;6.70;;;21.70;99.90;;;;;;5003821;28;20199;-67
2022/07/28 08:03:49;;;;;;;6.20;5.70;;;21.60;99.90;;;;;;5004132;28;20234;-68
2022/07/28 08:06:15;;;;;;;6.37;5.87;;;22.00;99.90;;;;;;5003890;28;20278;-66
2022/07/28 08:08:41;;;;;;;7.83;7.23;;;22.20;99.90;;;;;;4986660;28;20532;-66
2022/07/28 08:11:06;;;;;;;6.97;6.20;;;22.10;99.90;;;;;;5004221;28;20176;-68
2022/07/28 08:13:32;;;;;;;6.67;6.07;;;22.20;99.90;;;;;;5003898;28;20438;-67
2022/07/28 08:15:58;;;;;;;6.47;5.70;;;22.30;99.90;;;;;;5003490;28;20203;-67
2022/07/28 08:18:24;;;;;;;9.13;6.67;;;22.60;99.90;;;;;;5004174;28;20187;-66
2022/07/28 08:20:49;;;;;;;7.20;6.60;;;22.70;99.90;;;;;;5004291;28;20771;-66
2022/07/28 08:23:15;;;;;;;6.90;6.20;;;22.90;99.90;;;;;;5003471;28;20265;-67
2022/07/28 08:25:40;;;;;;;7.13;6.60;;;22.70;99.90;;;;;;5003834;28;20274;-65
2022/07/28 08:28:06;;;;;;;6.10;5.60;;;22.60;99.90;;;;;;5003567;28;20748;-67
2022/07/28 08:30:32;;;;;;;6.33;5.40;;;22.80;99.90;;;;;;5003394;28;20183;-66
2022/07/28 08:32:57;;;;;;;6.90;6.33;;;23.00;99.90;;;;;;5003601;28;20597;-67
2022/07/28 08:35:24;;;;;;;7.67;6.87;;;23.10;99.90;;;;;;5004000;28;20184;-67
2022/07/28 08:37:49;;;;;;;7.93;5.67;;;23.00;99.90;;;;;;5003862;28;20527;-67
2022/07/28 08:40:15;;;;;;;6.50;6.00;;;23.10;99.90;;;;;;5004112;28;20418;-66
2022/07/28 08:42:54;;;;;;;7.17;6.47;;;23.10;99.90;;;;;;5003525;28;20812;-66
2022/07/28 08:45:20;;;;;;;7.10;6.40;;;23.30;99.90;;;;;;5002870;28;20171;-67
2022/07/28 08:47:49;;;;;;;10.27;6.57;;;23.40;99.90;;;;;;5003723;28;20510;-67
2022/07/28 08:50:18;;;;;;;6.97;6.37;;;23.50;99.90;;;;;;5003546;28;20413;-67
2022/07/28 08:52:47;;;;;;;7.57;6.60;;;23.40;99.90;;;;;;5005470;28;20399;-67
2022/07/28 08:55:14;;;;;;;7.00;6.30;;;23.60;99.90;;;;;;5007476;28;20761;-66
2022/07/28 08:57:42;;;;;;;6.23;5.73;;;23.90;99.90;;;;;;5007135;28;20901;-67
2022/07/28 09:00:09;;;;;;;7.43;6.73;;;24.00;99.90;;;;;;5005730;28;20509;-67
2022/07/28 09:02:39;;;;;;;7.10;6.10;;;23.90;99.90;;;;;;5007214;28;20545;-67
2022/07/28 09:05:06;;;;;;;8.73;7.87;;;23.80;99.90;;;;;;5007323;28;20911;-68
2022/07/28 09:07:36;;;;;;;6.60;6.00;;;24.10;99.90;;;;;;5007244;28;20434;-68
2022/07/28 09:10:04;;;;;;;8.07;7.00;;;24.30;99.90;;;;;;5006872;28;20498;-67
2022/07/28 09:12:32;;;;;;;9.17;7.00;;;24.60;99.90;;;;;;5006654;28;20499;-67
2022/07/28 09:15:01;;;;;;;14.60;6.40;;;24.90;99.70;;;;;;5006278;28;20496;-68
2022/07/28 09:17:27;;;;;;;7.23;6.53;;;24.90;99.80;;;;;;5006826;28;20442;-66
2022/07/28 09:19:52;;;;;;;7.40;6.73;;;25.00;99.40;;;;;;5006751;28;20434;-68
2022/07/28 09:22:18;;;;;;;9.90;6.27;;;25.20;99.30;;;;;;5005792;28;20265;-67
2022/07/28 09:24:44;;;;;;;8.70;7.00;;;24.80;99.70;;;;;;5006850;28;20211;-69
2022/07/28 09:27:12;;;;;;;7.50;6.63;;;24.70;99.80;;;;;;5006476;28;20192;-69
2022/07/28 09:29:39;;;;;;;8.03;6.50;;;24.90;99.50;;;;;;5006329;28;20407;-67
2022/07/28 09:32:06;;;;;;;6.63;5.50;;;25.00;99.30;;;;;;5006751;28;20454;-67
2022/07/28 09:34:43;;;;;;;7.63;6.47;;;24.90;99.60;;;;;;5006759;28;20419;-67
2022/07/28 09:37:38;;;;;;;7.07;6.47;;;24.80;99.60;;;;;;5006164;28;20435;-68
2022/07/28 09:40:11;;;;;;;6.73;6.03;;;25.00;99.50;;;;;;4993489;28;20485;-68
2022/07/28 09:42:48;;;;;;;7.33;6.63;;;25.30;99.40;;;;;;5006394;28;20903;-68
2022/07/28 09:45:14;;;;;;;6.73;6.13;;;25.40;99.10;;;;;;5006002;28;20407;-69
2022/07/28 09:47:40;;;;;;;6.50;6.00;;;25.40;98.60;;;;;;5006118;28;20407;-67
2022/07/28 09:50:06;;;;;;;7.93;6.17;;;25.60;98.80;;;;;;5006651;28;20645;-69
2022/07/28 09:52:37;;;;;;;7.70;7.00;;;25.70;98.50;;;;;;5005987;28;20227;-67
2022/07/28 09:55:06;;;;;;;7.33;6.50;;;25.80;98.10;;;;;;5006244;28;20438;-67
2022/07/28 09:57:34;;;;;;;6.80;6.20;;;25.90;97.80;;;;;;5005140;28;20461;-67
2022/07/28 10:00:01;;;;;;;6.60;5.90;;;26.00;97.80;;;;;;5005967;28;20415;-68
2022/07/28 10:02:32;;;;;;;6.13;5.60;;;26.30;97.20;;;;;;5005796;28;20554;-66
2022/07/28 10:04:59;;;;;;;7.20;6.60;;;26.30;97.10;;;;;;5006264;28;20533;-67
2022/07/28 10:07:27;;;;;;;7.13;6.53;;;26.40;97.10;;;;;;5006172;28;20423;-66
2022/07/28 10:10:06;;;;;;;7.23;6.50;;;26.50;97.10;;;;;;5006076;28;20399;-66
2022/07/28 10:12:36;;;;;;;6.47;5.97;;;26.60;96.70;;;;;;5006605;28;20415;-66
2022/07/28 10:17:58;;;;;;;6.20;5.70;;;26.40;96.90;;;;;;5006125;28;20642;-66
2022/07/28 10:20:26;;;;;;;6.97;6.47;;;26.50;96.60;;;;;;5005910;28;20411;-66
2022/07/28 10:22:59;;;;;;;7.07;6.40;;;26.40;96.70;;;;;;5004260;28;20200;-66
2022/07/28 10:25:31;;;;;;;6.70;6.10;;;26.40;96.70;;;;;;5005790;28;20403;-67
2022/07/28 10:27:58;;;;;;;7.60;5.93;;;26.60;96.50;;;;;;5005779;28;20432;-66
2022/07/28 10:30:26;;;;;;;6.40;5.90;;;26.70;96.40;;;;;;4994258;28;20927;-67
2022/07/28 10:32:55;;;;;;;6.87;6.27;;;27.20;95.70;;;;;;5006664;28;20426;-67
2022/07/28 10:35:21;;;;;;;6.47;5.90;;;26.90;95.60;;;;;;5007390;28;20407;-67
2022/07/28 10:37:53;;;;;;;7.67;5.87;;;26.90;95.70;;;;;;5005448;28;20425;-66
2022/07/28 10:40:23;;;;;;;7.73;7.10;;;26.70;95.60;;;;;;5005329;28;20464;-67
2022/07/28 10:42:50;;;;;;;6.27;5.77;;;26.90;95.70;;;;;;5004885;28;20446;-65
2022/07/28 10:45:16;;;;;;;9.43;6.37;;;27.20;95.30;;;;;;5001287;28;20423;-66
2022/07/28 10:47:44;;;;;;;6.40;5.90;;;27.40;94.90;;;;;;5004745;28;20414;-66
2022/07/28 10:50:10;;;;;;;5.33;4.83;;;27.60;94.50;;;;;;5005017;28;20180;-66
2022/07/28 10:52:37;;;;;;;6.83;5.53;;;27.90;94.70;;;;;;5005198;28;20455;-66
2022/07/28 10:55:19;;;;;;;5.70;5.30;;;28.40;93.60;;;;;;5005402;28;20407;-66
2022/07/28 10:58:28;;;;;;;6.17;5.53;;;28.90;92.80;;;;;;5005172;28;20438;-66
2022/07/28 11:00:54;;;;;;;6.23;5.60;;;28.80;92.50;;;;;;5003879;28;20415;-67
2022/07/28 11:03:38;;;;;;;5.93;5.33;;;28.30;92.80;;;;;;5004998;28;20477;-67
2022/07/28 11:06:22;;;;;;;6.70;5.73;;;28.40;92.60;;;;;;5005144;28;20195;-67
2022/07/28 11:08:48;;;;;;;7.50;5.33;;;28.10;92.40;;;;;;5004857;28;20950;-64
2022/07/28 11:11:14;;;;;;;5.80;5.30;;;28.00;93.30;;;;;;5005522;28;20415;-66
2022/07/28 11:13:39;;;;;;;6.00;5.40;;;28.10;92.60;;;;;;5004988;28;20176;-66
2022/07/28 11:16:14;;;;;;;6.50;5.27;;;28.20;92.40;;;;;;5003101;28;20203;-67
2022/07/28 11:19:01;;;;;;;5.50;5.10;;;28.50;92.70;;;;;;5004021;28;20172;-67
2022/07/28 11:21:27;;;;;;;6.97;5.17;;;28.80;90.90;;;;;;5004554;28;20453;-67
2022/07/28 11:23:54;;;;;;;5.30;4.80;;;29.10;90.80;;;;;;5004430;28;20423;-67
2022/07/28 11:26:23;;;;;;;5.00;4.60;;;29.50;88.80;;;;;;5004659;28;20211;-68
2022/07/28 11:29:07;;;;;;;5.60;5.10;;;30.50;86.80;;;;;;5004530;28;20904;-67
2022/07/28 11:31:45;;;;;;;5.17;4.77;;;31.70;82.10;;;;;;5004151;28;20447;-67
2022/07/28 11:34:20;;;;;;;5.13;4.60;;;32.30;77.30;;;;;;5004374;28;20418;-67
2022/07/28 11:37:02;;;;;;;5.87;4.70;;;34.10;72.60;;;;;;5004336;28;20441;-68
2022/07/28 11:39:30;;;;;;;5.07;4.20;;;33.50;70.50;;;;;;5004419;28;20418;-67
2022/07/28 11:41:56;;;;;;;4.87;4.47;;;32.10;72.70;;;;;;5004157;28;20454;-67
2022/07/28 11:44:26;;;;;;;5.27;4.50;;;31.40;73.50;;;;;;5003908;28;20688;-68
2022/07/28 11:46:53;;;;;;;9.13;4.90;;;30.30;75.80;;;;;;5003695;28;20441;-68
2022/07/28 11:49:20;;;;;;;5.40;4.27;;;31.30;73.60;;;;;;5004416;28;20421;-68
2022/07/28 11:52:13;;;;;;;6.10;3.60;;;31.50;73.10;;;;;;5004098;28;20446;-67
2022/07/28 11:54:39;;;;;;;4.90;4.50;;;32.90;70.20;;;;;;5004470;28;20423;-68
2022/07/28 11:57:09;;;;;;;4.60;4.20;;;34.10;65.50;;;;;;4996839;28;21047;-67
2022/07/28 11:59:53;;;;;;;4.77;4.27;;;34.50;64.60;;;;;;4991368;28;20883;-68
2022/07/28 12:02:21;;;;;;;7.37;4.27;;;34.90;63.20;;;;;;4998109;28;20450;-67
2022/07/28 12:04:55;;;;;;;4.60;4.20;;;35.10;61.50;;;;;;5004057;28;20415;-67
2022/07/28 12:07:27;;;;;;;3.70;3.40;;;34.20;62.70;;;;;;4998903;28;20438;-66
2022/07/28 12:09:52;;;;;;;9.40;4.10;;;33.70;62.30;;;;;;5004197;28;20486;-67
2022/07/28 12:12:18;;;;;;;4.10;3.70;;;33.30;62.50;;;;;;5004182;28;20990;-67
2022/07/28 12:14:45;;;;;;;5.90;4.40;;;32.50;64.20;;;;;;5003698;28;20680;-67
2022/07/28 12:17:10;;;;;;;5.30;3.93;;;32.80;63.60;;;;;;5003856;28;20214;-67
2022/07/28 12:19:36;;;;;;;4.40;4.00;;;33.70;62.20;;;;;;5004378;28;20422;-68
2022/07/28 12:22:09;;;;;;;4.30;4.00;;;33.20;62.30;;;;;;5004137;28;20488;-68
2022/07/28 12:24:35;;;;;;;4.13;3.50;;;34.20;60.30;;;;;;5004522;28;20556;-68
2022/07/28 12:27:01;;;;;;;5.20;3.90;;;34.60;58.10;;;;;;5006511;28;20434;-68
2022/07/28 12:29:32;;;;;;;4.33;3.93;;;33.90;60.30;;;;;;5008237;28;20545;-68
2022/07/28 12:32:01;;;;;;;7.07;4.07;;;33.30;61.00;;;;;;5008388;28;20207;-67
2022/07/28 12:34:28;;;;;;;4.23;3.53;;;33.50;60.10;;;;;;5007896;28;20938;-68
2022/07/28 12:37:08;;;;;;;4.30;3.90;;;32.60;59.30;;;;;;5007816;28;20508;-68
2022/07/28 12:39:37;;;;;;;3.20;2.97;;;33.20;59.30;;;;;;5007942;28;20513;-69
2022/07/28 12:42:11;;;;;;;6.60;3.77;;;33.80;56.80;;;;;;5007594;28;20453;-69
2022/07/28 12:44:39;;;;;;;4.70;3.60;;;33.10;57.70;;;;;;5007385;28;20414;-69
2022/07/28 12:47:07;;;;;;;4.33;3.57;;;32.80;59.90;;;;;;5007558;28;20452;-68
2022/07/28 12:49:34;;;;;;;5.73;3.53;;;33.60;58.90;;;;;;5008035;28;20431;-70
2022/07/28 12:52:20;;;;;;;4.30;3.90;;;32.80;59.50;;;;;;5007762;28;20426;-69
2022/07/28 12:54:46;;;;;;;5.30;3.73;;;32.40;59.90;;;;;;5007663;28;20415;-68
2022/07/28 12:57:12;;;;;;;4.50;4.17;;;32.70;59.20;;;;;;5007109;28;20557;-70
2022/07/28 12:59:38;;;;;;;4.10;3.70;;;32.10;61.10;;;;;;5006586;28;20505;-68
2022/07/28 13:02:07;;;;;;;4.30;3.90;;;32.00;60.50;;;;;;5007191;28;20677;-69
2022/07/28 13:04:44;;;;;;;4.43;4.13;;;32.10;59.70;;;;;;5006666;28;20430;-69
2022/07/28 13:07:23;;;;;;;4.10;3.80;;;31.50;60.60;;;;;;5005305;28;20994;-67
2022/07/28 13:10:03;;;;;;;3.67;3.37;;;32.60;59.30;;;;;;5007087;28;20524;-69
2022/07/28 13:12:29;;;;;;;3.67;3.37;;;33.60;58.80;;;;;;5007353;28;20435;-69